This is the latest recevied weather packets stored in our database for station/object WB6ANP. If no packets are shown the sender has not sent any weather packets the latest 1 day(s).
| Time | Temp. | Humidity | Pressure | Rain* | Wind** | Luminosity | Snow |
|---|---|---|---|---|---|---|---|
| 1777995712 | 26.11° C | 69% | 1004.5 hPa | 0 mm | 2.68 m/s, 242° | 688 W/m² | - |
| 1777995409 | 25.56° C | 70% | 1004.7 hPa | 0 mm | 2.68 m/s, 239° | 691 W/m² | - |
| 1777995106 | 25° C | 72% | 1004.9 hPa | 0 mm | 4.92 m/s, 224° | 335 W/m² | - |
| 1777994803 | 24.44° C | 74% | 1004.9 hPa | 0 mm | 1.79 m/s, 215° | 322 W/m² | - |
| 1777994498 | 24.44° C | 73% | 1004.7 hPa | 0 mm | 2.68 m/s, 229° | 303 W/m² | - |
| 1777994194 | 24.44° C | 73% | 1004.9 hPa | 0 mm | 3.58 m/s, 219° | 293 W/m² | - |
| 1777993892 | 25° C | 73% | 1004.9 hPa | 0 mm | 2.24 m/s, 219° | 483 W/m² | - |
| 1777993587 | 23.89° C | 75% | 1004.8 hPa | 0 mm | 3.58 m/s, 230° | 302 W/m² | - |
| 1777993285 | 23.89° C | 75% | 1004.8 hPa | 0 mm | 1.34 m/s, 234° | 320 W/m² | - |
| 1777992980 | 23.89° C | 76% | 1004.8 hPa | 0 mm | 3.58 m/s, 216° | 380 W/m² | - |
| 1777992679 | 23.33° C | 77% | 1004.7 hPa | 0 mm | 2.24 m/s, 204° | 452 W/m² | - |
| 1777992376 | 22.78° C | 78% | 1004.7 hPa | 0 mm | 4.02 m/s, 222° | 262 W/m² | - |
| 1777992074 | 22.78° C | 78% | 1004.8 hPa | 0 mm | 4.92 m/s, 234° | 278 W/m² | - |
| 1777991771 | 22.78° C | 78% | 1005 hPa | 0 mm | 4.92 m/s, 207° | 264 W/m² | - |
| 1777991468 | 23.33° C | 77% | 1004.8 hPa | 0 mm | 4.92 m/s, 196° | 206 W/m² | - |
| 1777991165 | 22.78° C | 79% | 1004.8 hPa | 0 mm | 2.24 m/s, 228° | 320 W/m² | - |
| 1777990863 | 22.78° C | 80% | 1004.7 hPa | 0 mm | 2.68 m/s, 222° | 356 W/m² | - |
| 1777990560 | 22.22° C | 81% | 1004.9 hPa | 0 mm | 3.13 m/s, 228° | 306 W/m² | - |
| 1777990256 | 22.22° C | 80% | 1004.9 hPa | 0 mm | 4.02 m/s, 208° | 282 W/m² | - |
| 1777989953 | 21.67° C | 83% | 1004.9 hPa | 0 mm | 1.34 m/s, 224° | 444 W/m² | - |
| 1777989650 | 21.11° C | 84% | 1004.7 hPa | 0 mm | 2.68 m/s, 203° | 179 W/m² | - |
| 1777989346 | 21.11° C | 84% | 1004.9 hPa | 0 mm | 3.13 m/s, 218° | 149 W/m² | - |
| 1777989043 | 21.11° C | 84% | 1004.6 hPa | 0 mm | 3.13 m/s, 182° | 144 W/m² | - |
| 1777988739 | 21.11° C | 85% | 1004.8 hPa | 0 mm | 2.24 m/s, 211° | 157 W/m² | - |
| 1777988436 | 20.56° C | 86% | 1004.8 hPa | 0 mm | 0.89 m/s, 134° | 160 W/m² | - |
* Rain latest hour (hover to see other rain measurements)
** Current wind speed in m/s (hover to see current wind gust speed)